Briarcliff, New York
Current Conditions -  °F | °C
As of 3:56 AM on Thursday 27 Nov 2014 (Local Time) from KHPN Reporting Station
Overcast Overcast  
Wind Chill: -6°   Ceiling: 6500
Heat Index:   Visibility: 10mi
Dew Point: -2°   Wind: 20mph
Humidity: 82%   Direction: 330°NNW
Pressure: 29.88"   Gusts: NA
Location:  41.1414°N, 73.8338°W
Report Text: KHPN 270856Z 33017KT 10SM SCT048 OVC065 01/M02 A2988 RMK AO2 SLP125 60000 T00061022 51021
Loading
Personal Weather Stations






























Interactive Weather Map New forecast layout! Learn more

10-Day Weather Forecast

Advertisements
Track Severe Weather on mobile